Time;durP1;ratioP1;P1;durP2;ratioP2;P2;SDS_P1;SDS_P2;PMS_P1;PMS_P2;Temp;Humidity;BMP_temperature;BMP_pressure;BME280_temperature;BME280_humidity;BME280_pressure;Samples;Min_cycle;Max_cycle;Signal;HPM_P1;HPM_P2
2021/07/14 00:00:49;;;;;;;7.57;6.97;;;21.00;85.70;;;;;;10456715;28;20589;-30
2021/07/14 00:06:11;;;;;;;8.80;8.10;;;21.00;85.70;;;;;;10455147;28;20292;-26
2021/07/14 00:11:38;;;;;;;8.17;7.53;;;21.00;85.70;;;;;;10456169;28;20668;-31
2021/07/14 00:17:14;;;;;;;8.40;7.70;;;21.00;85.70;;;;;;10446767;28;20696;-25
2021/07/14 00:22:37;;;;;;;8.53;7.83;;;21.00;85.70;;;;;;10440971;28;20738;-27
2021/07/14 00:28:00;;;;;;;9.03;8.13;;;21.00;85.80;;;;;;10455675;28;20204;-29
2021/07/14 00:33:24;;;;;;;8.97;8.27;;;21.00;85.80;;;;;;10453885;28;20224;-28
2021/07/14 00:38:46;;;;;;;8.70;8.00;;;21.00;85.80;;;;;;10444188;28;20587;-29
2021/07/14 00:44:09;;;;;;;9.07;8.27;;;21.00;85.90;;;;;;10453443;28;20603;-30
2021/07/14 00:49:32;;;;;;;9.63;8.83;;;21.00;85.80;;;;;;10438145;28;20591;-29
2021/07/14 00:54:54;;;;;;;9.70;8.83;;;21.00;85.90;;;;;;10434045;28;20231;-27
2021/07/14 01:00:18;;;;;;;9.30;8.50;;;21.00;85.90;;;;;;10442722;28;20604;-25
2021/07/14 01:05:45;;;;;;;9.70;8.90;;;21.00;85.80;;;;;;10453475;28;20217;-26
2021/07/14 01:11:10;;;;;;;9.90;9.03;;;21.00;85.90;;;;;;10452444;28;20201;-27
2021/07/14 01:16:39;;;;;;;9.57;8.70;;;21.00;85.90;;;;;;10448995;28;20209;-29
2021/07/14 01:22:15;;;;;;;9.07;8.27;;;21.00;85.90;;;;;;10433425;28;20220;-26
2021/07/14 01:27:41;;;;;;;9.97;9.17;;;21.00;86.00;;;;;;10426205;28;20196;-26
2021/07/14 01:33:03;;;;;;;9.87;9.07;;;21.00;86.00;;;;;;10443829;28;20213;-29
2021/07/14 01:38:27;;;;;;;10.93;9.87;;;21.00;86.00;;;;;;10432783;28;20198;-28
2021/07/14 01:43:54;;;;;;;10.33;9.33;;;21.00;86.00;;;;;;10411045;28;20229;-29
2021/07/14 01:49:18;;;;;;;10.17;9.27;;;21.00;86.00;;;;;;10424091;28;20558;-28
2021/07/14 01:54:42;;;;;;;10.53;9.70;;;21.00;86.10;;;;;;10472567;22;20231;-30
2021/07/14 02:00:08;;;;;;;12.23;10.33;;;21.00;86.10;;;;;;10462396;28;20212;-29
2021/07/14 02:05:31;;;;;;;11.07;10.00;;;21.00;86.50;;;;;;10450564;28;20231;-30
2021/07/14 02:10:54;;;;;;;11.23;10.33;;;21.00;86.20;;;;;;10484968;28;20192;-32
2021/07/14 02:16:19;;;;;;;10.87;9.97;;;21.00;86.40;;;;;;10462767;28;20224;-31
2021/07/14 02:21:41;;;;;;;11.60;10.43;;;21.00;86.60;;;;;;10462602;28;20227;-30
2021/07/14 02:27:07;;;;;;;10.63;9.63;;;21.00;86.60;;;;;;10477461;28;20634;-31
2021/07/14 02:32:31;;;;;;;10.77;9.77;;;21.00;86.60;;;;;;10464277;28;20212;-30
2021/07/14 02:37:58;;;;;;;10.17;9.27;;;21.00;86.40;;;;;;10493568;28;20192;-32
2021/07/14 02:43:26;;;;;;;9.93;9.13;;;21.00;86.60;;;;;;10501253;28;20222;-30
2021/07/14 02:48:53;;;;;;;11.73;10.57;;;21.00;86.60;;;;;;10492993;28;20591;-30
2021/07/14 02:54:20;;;;;;;11.40;10.03;;;21.10;87.10;;;;;;10501084;28;20228;-29
2021/07/14 02:59:49;;;;;;;10.93;10.03;;;21.10;86.80;;;;;;10429791;28;20201;-29
2021/07/14 03:05:15;;;;;;;11.77;10.77;;;21.00;86.70;;;;;;10417385;28;20213;-29
2021/07/14 03:10:37;;;;;;;11.63;10.63;;;21.00;87.40;;;;;;10418318;28;20193;-30
2021/07/14 03:16:00;;;;;;;12.53;11.23;;;21.10;87.10;;;;;;10416026;28;20218;-30
2021/07/14 03:21:24;;;;;;;11.43;10.43;;;21.00;87.40;;;;;;10444078;28;20212;-31
2021/07/14 03:26:47;;;;;;;12.63;11.50;;;21.10;87.60;;;;;;10478895;28;20711;-30
2021/07/14 03:32:11;;;;;;;11.03;10.03;;;21.10;87.80;;;;;;10439794;28;20196;-29
2021/07/14 03:37:36;;;;;;;12.07;10.20;;;21.00;87.40;;;;;;10459768;28;20207;-32
2021/07/14 03:42:59;;;;;;;13.07;11.83;;;21.00;87.40;;;;;;10415499;28;20222;-30
2021/07/14 03:48:24;;;;;;;13.10;11.57;;;21.10;87.70;;;;;;10408864;28;20701;-33
2021/07/14 03:53:47;;;;;;;13.30;12.10;;;21.10;88.10;;;;;;10411049;28;20217;-32
2021/07/14 03:59:10;;;;;;;12.10;10.90;;;21.10;87.80;;;;;;10470851;28;20194;-31
2021/07/14 04:04:32;;;;;;;12.03;11.03;;;21.10;87.90;;;;;;10437124;28;20228;-29
2021/07/14 04:09:57;;;;;;;11.53;10.57;;;21.10;88.10;;;;;;10434080;28;20196;-29
2021/07/14 04:15:19;;;;;;;11.77;10.67;;;21.10;87.90;;;;;;10438194;28;20216;-30
2021/07/14 04:20:42;;;;;;;11.83;10.73;;;21.00;88.00;;;;;;10441952;28;20220;-31
2021/07/14 04:26:05;;;;;;;11.30;10.30;;;21.10;87.80;;;;;;10439929;28;20596;-29
2021/07/14 04:31:27;;;;;;;10.97;10.07;;;21.10;87.70;;;;;;10425724;28;20201;-30
2021/07/14 04:36:49;;;;;;;11.10;10.10;;;21.00;87.20;;;;;;10431479;28;20212;-31
2021/07/14 04:42:13;;;;;;;10.93;9.90;;;21.00;87.30;;;;;;10448489;28;20216;-30
2021/07/14 04:47:35;;;;;;;10.40;9.50;;;21.10;87.30;;;;;;10455408;28;20208;-29
2021/07/14 04:52:57;;;;;;;10.33;9.33;;;21.00;87.00;;;;;;10454366;28;20229;-31
2021/07/14 04:58:21;;;;;;;10.77;9.87;;;21.00;87.20;;;;;;10451478;28;20212;-30
2021/07/14 05:03:44;;;;;;;11.50;10.40;;;21.00;87.20;;;;;;10429809;28;20692;-29
2021/07/14 05:09:07;;;;;;;11.00;9.90;;;21.00;87.10;;;;;;10437113;28;20197;-29
2021/07/14 05:14:30;;;;;;;11.20;10.27;;;21.10;87.10;;;;;;10424552;28;20685;-29
2021/07/14 05:19:53;;;;;;;10.47;9.57;;;21.00;87.00;;;;;;10455233;28;20558;-28
2021/07/14 05:25:16;;;;;;;10.93;9.83;;;21.10;87.40;;;;;;10459765;28;20212;-29
2021/07/14 05:30:40;;;;;;;15.67;11.10;;;21.00;88.10;;;;;;10456671;28;20283;-29
2021/07/14 05:36:02;;;;;;;14.00;11.20;;;21.10;88.80;;;;;;10463609;28;20711;-29
2021/07/14 05:41:24;;;;;;;10.57;9.37;;;21.10;89.50;;;;;;10413211;28;20206;-29
2021/07/14 05:46:48;;;;;;;11.97;10.53;;;21.10;89.80;;;;;;10435228;28;20212;-31
2021/07/14 05:52:12;;;;;;;10.70;9.30;;;21.10;89.40;;;;;;10454266;28;20204;-30
2021/07/14 05:57:34;;;;;;;11.63;10.00;;;21.10;90.10;;;;;;10446460;28;20212;-30
2021/07/14 06:02:58;;;;;;;12.67;10.57;;;21.10;89.80;;;;;;10438645;28;20221;-30
2021/07/14 06:08:20;;;;;;;12.47;10.03;;;21.10;91.20;;;;;;10459737;28;20203;-31
2021/07/14 06:13:42;;;;;;;10.97;8.90;;;21.10;91.00;;;;;;10463329;28;20221;-29
2021/07/14 06:19:05;;;;;;;10.20;8.93;;;21.20;90.00;;;;;;10452990;28;20197;-31
2021/07/14 06:24:28;;;;;;;9.10;8.07;;;21.30;87.80;;;;;;10491679;28;20224;-29
2021/07/14 06:29:50;;;;;;;7.90;7.10;;;21.30;86.00;;;;;;10488035;28;20201;-29
2021/07/14 06:35:13;;;;;;;7.60;6.90;;;21.40;84.60;;;;;;10462705;28;20217;-30
2021/07/14 06:40:37;;;;;;;8.13;7.27;;;21.40;83.60;;;;;;10451744;28;20351;-30
2021/07/14 06:45:59;;;;;;;7.93;6.70;;;21.50;82.90;;;;;;10450992;28;20216;-31
2021/07/14 06:51:23;;;;;;;8.10;7.27;;;21.50;82.30;;;;;;10451821;28;20611;-30
2021/07/14 06:56:45;;;;;;;7.17;6.50;;;21.50;81.80;;;;;;10452546;28;20239;-30
2021/07/14 07:02:07;;;;;;;7.03;6.40;;;21.60;81.30;;;;;;10451247;28;20220;-29
2021/07/14 07:07:31;;;;;;;7.73;6.40;;;21.60;80.90;;;;;;10452522;28;20197;-30
2021/07/14 07:12:53;;;;;;;6.53;5.83;;;21.60;80.60;;;;;;10463181;28;20286;-31
2021/07/14 07:18:16;;;;;;;8.93;6.63;;;21.60;80.40;;;;;;10458862;28;20576;-31
2021/07/14 07:23:39;;;;;;;7.67;6.40;;;21.70;80.20;;;;;;10492339;28;20617;-31
2021/07/14 07:29:03;;;;;;;7.77;6.10;;;21.70;80.00;;;;;;10484353;28;20619;-30
2021/07/14 07:34:25;;;;;;;15.47;8.30;;;21.70;79.70;;;;;;10458161;28;20209;-30
2021/07/14 07:39:49;;;;;;;11.90;9.00;;;21.70;80.50;;;;;;10468002;28;20201;-30
2021/07/14 07:45:12;;;;;;;12.30;10.90;;;21.70;86.90;;;;;;10457680;28;20228;-31
2021/07/14 07:50:34;;;;;;;16.03;10.93;;;21.60;90.00;;;;;;10432287;28;20201;-31
2021/07/14 07:55:57;;;;;;;13.40;11.57;;;21.50;90.00;;;;;;10482669;22;20250;-22
2021/07/14 08:01:20;;;;;;;12.43;11.23;;;21.60;90.50;;;;;;10495806;28;20213;-22
2021/07/14 08:06:42;;;;;;;13.40;11.10;;;21.50;90.70;;;;;;10495648;28;20227;-24
2021/07/14 08:12:06;;;;;;;13.00;11.70;;;21.60;90.30;;;;;;10495377;28;20203;-22
2021/07/14 08:17:28;;;;;;;14.40;11.90;;;21.60;90.60;;;;;;10495752;28;20394;-23
2021/07/14 08:22:50;;;;;;;14.17;12.67;;;21.60;90.40;;;;;;10494439;28;20705;-23
2021/07/14 08:28:14;;;;;;;14.57;13.17;;;21.60;90.60;;;;;;10472153;28;20284;-21
2021/07/14 08:33:37;;;;;;;13.47;11.97;;;21.60;90.70;;;;;;10492487;28;20227;-22
2021/07/14 08:38:59;;;;;;;15.23;13.27;;;21.60;90.20;;;;;;10496128;28;20196;-23
2021/07/14 08:44:24;;;;;;;15.80;10.07;;;21.60;90.60;;;;;;10465373;28;20225;-22
2021/07/14 08:49:48;;;;;;;11.17;10.07;;;21.60;89.80;;;;;;10488156;28;20204;-23
2021/07/14 08:55:12;;;;;;;15.57;11.17;;;21.50;88.60;;;;;;10488572;28;20231;-22
2021/07/14 09:00:35;;;;;;;11.67;10.50;;;21.50;88.80;;;;;;10489200;28;20326;-22
2021/07/14 09:05:57;;;;;;;12.30;11.00;;;21.50;89.00;;;;;;10450464;28;20225;-23
2021/07/14 09:11:19;;;;;;;14.17;12.57;;;21.40;88.90;;;;;;10479023;28;20614;-24
2021/07/14 09:16:43;;;;;;;12.43;11.13;;;21.50;88.80;;;;;;10488405;28;20219;-22
2021/07/14 09:22:05;;;;;;;13.07;11.80;;;21.40;88.90;;;;;;10489132;28;20216;-23
2021/07/14 09:27:31;;;;;;;13.30;11.67;;;21.30;88.50;;;;;;10461111;28;20231;-22
2021/07/14 09:32:56;;;;;;;13.47;11.40;;;21.40;88.50;;;;;;10475007;28;20189;-24
2021/07/14 09:38:19;;;;;;;12.10;10.33;;;21.40;88.60;;;;;;10486152;28;20193;-23
2021/07/14 09:43:43;;;;;;;13.53;10.50;;;21.40;88.30;;;;;;10492330;28;20350;-23
2021/07/14 09:49:14;;;;;;;12.40;10.97;;;21.40;88.10;;;;;;10493172;28;20200;-22
2021/07/14 09:54:36;;;;;;;11.93;10.73;;;21.40;88.60;;;;;;10466083;28;20228;-23
2021/07/14 09:59:58;;;;;;;12.00;10.83;;;21.40;88.60;;;;;;10486667;28;20200;-22
2021/07/14 10:05:26;;;;;;;11.73;10.50;;;21.40;88.30;;;;;;10489928;28;20599;-23
2021/07/14 10:10:50;;;;;;;11.67;10.47;;;21.40;88.60;;;;;;10491187;28;20203;-23
2021/07/14 10:16:12;;;;;;;11.33;10.07;;;21.40;88.50;;;;;;10483241;28;20587;-20
2021/07/14 10:21:37;;;;;;;11.80;10.17;;;21.40;88.40;;;;;;10488042;28;20683;-23
2021/07/14 10:27:00;;;;;;;13.03;10.33;;;21.40;88.20;;;;;;10490066;28;20236;-23
2021/07/14 10:32:22;;;;;;;13.47;10.30;;;21.30;88.10;;;;;;10479155;28;20193;-23
2021/07/14 10:37:51;;;;;;;11.43;10.23;;;21.40;88.30;;;;;;10484120;28;20601;-22
2021/07/14 10:43:17;;;;;;;14.43;12.63;;;21.40;88.20;;;;;;10487519;28;20303;-23
2021/07/14 10:48:42;;;;;;;14.87;10.73;;;21.40;89.80;;;;;;10478354;28;20200;-22
2021/07/14 10:54:08;;;;;;;16.30;12.00;;;21.40;89.30;;;;;;10496098;28;20243;-23
2021/07/14 10:59:30;;;;;;;15.03;12.67;;;21.40;89.80;;;;;;10497504;28;20738;-21
2021/07/14 11:04:53;;;;;;;14.07;12.57;;;21.40;89.50;;;;;;10499248;28;20221;-22
2021/07/14 11:10:26;;;;;;;16.13;14.00;;;21.40;90.00;;;;;;10487357;28;20212;-22
2021/07/14 11:15:48;;;;;;;13.63;12.20;;;21.40;90.00;;;;;;10498230;28;20208;-23
2021/07/14 11:21:10;;;;;;;13.40;12.00;;;21.40;89.70;;;;;;10499122;28;20200;-22
2021/07/14 11:26:33;;;;;;;13.30;11.90;;;21.40;89.70;;;;;;10497300;28;20212;-25
2021/07/14 11:31:55;;;;;;;14.80;13.13;;;21.40;89.90;;;;;;10495828;28;20199;-23
2021/07/14 11:37:21;;;;;;;14.33;12.03;;;21.40;89.40;;;;;;10494558;28;20216;-22
2021/07/14 11:42:50;;;;;;;14.13;11.83;;;21.40;89.50;;;;;;10489412;28;20569;-22
2021/07/14 11:48:13;;;;;;;13.80;12.40;;;21.30;89.50;;;;;;10456938;28;20224;-21
2021/07/14 11:53:45;;;;;;;13.33;12.03;;;21.30;89.50;;;;;;10463368;28;20212;-23
2021/07/14 11:59:14;;;;;;;13.37;11.67;;;21.40;89.50;;;;;;10496499;28;20690;-23
2021/07/14 12:04:38;;;;;;;12.47;11.30;;;21.40;89.70;;;;;;10496476;28;20287;-23
2021/07/14 12:10:01;;;;;;;13.33;11.87;;;21.40;90.10;;;;;;10485382;28;20209;-22
2021/07/14 12:15:25;;;;;;;12.67;11.43;;;21.40;89.90;;;;;;10498201;28;20223;-22
2021/07/14 12:20:50;;;;;;;12.33;11.03;;;21.30;89.80;;;;;;10494945;28;20196;-23
2021/07/14 12:26:13;;;;;;;14.00;11.27;;;21.40;89.90;;;;;;10496646;28;20216;-23
2021/07/14 12:31:36;;;;;;;13.00;11.27;;;21.40;89.80;;;;;;10491359;28;20208;-22
2021/07/14 12:37:00;;;;;;;12.40;10.33;;;21.40;89.80;;;;;;10494294;28;20220;-22
2021/07/14 12:42:23;;;;;;;13.07;11.60;;;21.40;89.80;;;;;;10494507;28;20633;-22
2021/07/14 12:47:47;;;;;;;13.23;11.87;;;21.40;90.30;;;;;;10494429;28;20270;-22
2021/07/14 12:53:09;;;;;;;15.23;12.80;;;21.50;90.30;;;;;;10493758;28;20215;-22
2021/07/14 12:58:32;;;;;;;14.00;12.70;;;21.60;90.50;;;;;;10478466;28;20193;-22
2021/07/14 13:03:57;;;;;;;12.60;11.30;;;21.60;90.60;;;;;;10459608;28;20231;-22
2021/07/14 13:09:19;;;;;;;14.63;12.83;;;21.70;90.60;;;;;;10464684;28;20198;-23
2021/07/14 13:14:42;;;;;;;13.30;11.90;;;21.70;90.60;;;;;;10493370;28;20232;-22
2021/07/14 13:20:10;;;;;;;13.13;11.93;;;21.70;90.50;;;;;;10493601;28;20196;-22
2021/07/14 13:25:38;;;;;;;14.13;11.70;;;21.70;90.60;;;;;;10461531;28;20710;-22
2021/07/14 13:31:01;;;;;;;13.03;11.83;;;21.80;90.60;;;;;;10490009;28;20200;-22
2021/07/14 13:36:29;;;;;;;13.80;12.33;;;21.70;90.20;;;;;;10488912;28;20213;-21
2021/07/14 13:41:51;;;;;;;12.67;11.37;;;21.70;90.20;;;;;;10489990;28;20777;-22
2021/07/14 13:47:19;;;;;;;13.37;12.00;;;21.70;90.10;;;;;;10492146;28;20728;-22
2021/07/14 13:52:56;;;;;;;13.17;11.77;;;21.70;90.20;;;;;;10489177;28;20668;-22
2021/07/14 13:58:24;;;;;;;13.57;12.27;;;21.70;90.30;;;;;;10520834;22;20228;-31
2021/07/14 14:03:59;;;;;;;14.53;11.37;;;21.80;90.10;;;;;;10527970;28;20630;-30
2021/07/14 14:09:23;;;;;;;14.07;10.90;;;21.70;89.80;;;;;;10474989;28;20711;-31
2021/07/14 14:14:45;;;;;;;12.10;10.67;;;21.70;90.00;;;;;;10491128;28;20204;-33
2021/07/14 14:20:11;;;;;;;11.13;10.03;;;21.80;89.30;;;;;;10483056;28;20204;-31
2021/07/14 14:25:39;;;;;;;12.10;10.37;;;21.80;89.20;;;;;;10465858;28;20587;-30
2021/07/14 14:31:01;;;;;;;12.83;10.73;;;21.80;89.40;;;;;;10478488;28;20205;-30
2021/07/14 14:36:23;;;;;;;13.87;10.03;;;21.70;89.40;;;;;;10483797;28;20592;-30
2021/07/14 14:41:46;;;;;;;10.47;9.40;;;21.60;89.40;;;;;;10466808;28;20569;-30
2021/07/14 14:47:08;;;;;;;9.97;9.00;;;21.60;89.50;;;;;;10464754;28;20216;-29
2021/07/14 14:52:30;;;;;;;11.50;9.37;;;21.50;89.40;;;;;;10467067;28;20564;-29
2021/07/14 14:57:54;;;;;;;10.13;9.13;;;21.50;89.50;;;;;;10466904;28;20231;-29
2021/07/14 15:03:16;;;;;;;9.80;8.80;;;21.50;89.60;;;;;;10466026;28;20209;-28
2021/07/14 15:08:38;;;;;;;9.30;8.40;;;21.50;89.60;;;;;;10470928;28;20223;-31
2021/07/14 15:14:01;;;;;;;8.83;7.93;;;21.40;89.40;;;;;;10497747;28;20203;-30
2021/07/14 15:19:23;;;;;;;10.67;8.00;;;21.50;89.50;;;;;;10489301;28;20193;-28
2021/07/14 15:24:48;;;;;;;8.90;8.03;;;21.40;89.40;;;;;;10464437;28;20220;-30
2021/07/14 15:30:13;;;;;;;9.37;8.40;;;21.40;89.40;;;;;;10480287;28;20204;-32
2021/07/14 15:35:36;;;;;;;9.43;8.27;;;21.40;89.40;;;;;;10483970;28;20319;-30
2021/07/14 15:40:58;;;;;;;8.60;7.77;;;21.40;89.40;;;;;;10498102;28;20564;-36
2021/07/14 15:46:22;;;;;;;10.50;7.93;;;21.40;89.40;;;;;;10462845;28;20628;-31
2021/07/14 15:51:44;;;;;;;8.43;7.63;;;21.40;89.40;;;;;;10457892;28;20204;-31
2021/07/14 15:57:06;;;;;;;8.60;7.70;;;21.40;89.40;;;;;;10491414;28;20715;-31
2021/07/14 16:02:30;;;;;;;8.53;7.73;;;21.40;89.40;;;;;;10492041;28;20244;-29
2021/07/14 16:07:52;;;;;;;8.20;7.40;;;21.40;89.40;;;;;;10459341;28;20228;-30
2021/07/14 16:13:14;;;;;;;7.80;7.07;;;21.40;89.30;;;;;;10481493;28;20193;-29
2021/07/14 16:18:38;;;;;;;9.17;6.93;;;21.40;89.30;;;;;;10493111;28;20223;-31
2021/07/14 16:24:00;;;;;;;8.37;7.57;;;21.40;89.30;;;;;;10489634;28;20219;-29
2021/07/14 16:29:22;;;;;;;8.07;7.30;;;21.40;89.20;;;;;;10496295;28;20189;-30
2021/07/14 16:34:45;;;;;;;7.60;6.93;;;21.40;89.30;;;;;;10491151;28;20216;-30
2021/07/14 16:40:12;;;;;;;8.03;7.33;;;21.40;89.30;;;;;;10495550;28;20564;-33
2021/07/14 16:45:34;;;;;;;7.60;6.90;;;21.40;89.20;;;;;;10493424;28;20224;-30
2021/07/14 16:50:57;;;;;;;8.03;7.33;;;21.40;89.20;;;;;;10494413;28;20247;-31
2021/07/14 16:56:19;;;;;;;7.13;6.53;;;21.40;89.20;;;;;;10496105;28;20220;-30
2021/07/14 17:01:41;;;;;;;8.43;6.80;;;21.40;89.10;;;;;;10496168;28;20197;-29
2021/07/14 17:07:05;;;;;;;7.67;6.90;;;21.40;89.00;;;;;;10497053;28;20216;-30
2021/07/14 17:12:27;;;;;;;7.50;6.70;;;21.40;89.00;;;;;;10488169;28;20258;-30
2021/07/14 17:17:49;;;;;;;7.20;6.50;;;21.40;89.00;;;;;;10454255;28;20205;-32
2021/07/14 17:23:13;;;;;;;7.33;6.73;;;21.40;89.00;;;;;;10483253;28;20220;-32
2021/07/14 17:28:35;;;;;;;7.37;6.50;;;21.40;89.00;;;;;;10495526;28;20219;-30
2021/07/14 17:33:57;;;;;;;7.13;6.17;;;21.40;89.00;;;;;;10485150;28;20197;-30
2021/07/14 17:39:21;;;;;;;10.57;6.60;;;21.40;89.10;;;;;;10481785;28;20199;-28
2021/07/14 17:44:44;;;;;;;13.37;6.43;;;21.40;89.00;;;;;;10488365;28;20230;-34
2021/07/14 17:50:07;;;;;;;15.37;7.70;;;21.40;89.00;;;;;;10488435;28;20602;-30
2021/07/14 17:55:30;;;;;;;13.77;6.73;;;21.40;89.00;;;;;;10481907;28;20216;-31
2021/07/14 18:00:53;;;;;;;9.33;6.13;;;21.40;89.00;;;;;;10489575;28;20195;-30
2021/07/14 18:06:16;;;;;;;9.90;6.10;;;21.40;89.00;;;;;;10488027;28;20595;-32
2021/07/14 18:11:39;;;;;;;9.97;6.53;;;21.40;89.00;;;;;;10481987;28;20259;-31
2021/07/14 18:17:01;;;;;;;8.17;6.17;;;21.40;89.00;;;;;;10458201;28;20224;-32
2021/07/14 18:22:23;;;;;;;7.70;6.07;;;21.40;89.00;;;;;;10453710;28;20204;-31
2021/07/14 18:27:50;;;;;;;9.43;5.53;;;21.40;89.00;;;;;;10451727;28;20212;-33
2021/07/14 18:33:12;;;;;;;7.37;6.07;;;21.40;89.00;;;;;;10468949;28;20199;-30
2021/07/14 18:38:34;;;;;;;6.77;6.07;;;21.40;89.20;;;;;;10461257;28;20229;-31
2021/07/14 18:43:59;;;;;;;10.17;5.90;;;21.40;89.20;;;;;;10453213;28;20216;-32
2021/07/14 18:49:21;;;;;;;8.93;6.30;;;21.50;89.30;;;;;;10452492;28;20185;-31
2021/07/14 18:54:43;;;;;;;6.27;5.67;;;21.40;89.20;;;;;;10478927;28;20975;-30
2021/07/14 19:00:10;;;;;;;7.20;5.60;;;21.40;89.00;;;;;;10487510;28;20200;-32
2021/07/14 19:05:32;;;;;;;7.33;5.73;;;21.40;89.00;;;;;;10472571;28;20213;-29
2021/07/14 19:10:55;;;;;;;5.73;4.93;;;21.40;88.90;;;;;;10475665;28;20196;-31
2021/07/14 19:16:19;;;;;;;5.83;5.30;;;21.40;88.90;;;;;;10479694;28;20744;-31
2021/07/14 19:21:41;;;;;;;6.03;5.30;;;21.40;88.90;;;;;;10482452;28;20571;-31
2021/07/14 19:27:03;;;;;;;5.67;5.13;;;21.30;88.80;;;;;;10480916;28;20591;-31
2021/07/14 19:32:27;;;;;;;5.57;5.07;;;21.40;88.90;;;;;;10484242;28;20200;-31
2021/07/14 19:37:49;;;;;;;5.20;4.73;;;21.30;88.80;;;;;;10477436;28;20878;-31
2021/07/14 19:43:11;;;;;;;6.37;4.80;;;21.30;88.50;;;;;;10459070;28;20209;-31
2021/07/14 19:48:35;;;;;;;4.83;4.43;;;21.30;88.50;;;;;;10459804;28;20217;-32
2021/07/14 19:53:57;;;;;;;4.97;4.57;;;21.30;88.50;;;;;;10493518;28;20211;-31
2021/07/14 19:59:23;;;;;;;4.97;4.47;;;21.30;88.60;;;;;;10475229;22;20251;-22
2021/07/14 20:04:47;;;;;;;5.27;4.77;;;21.30;88.60;;;;;;10448475;28;20216;-23
2021/07/14 20:10:11;;;;;;;5.13;4.63;;;21.30;88.70;;;;;;10441626;28;20201;-24
2021/07/14 20:15:33;;;;;;;4.77;4.37;;;21.30;88.70;;;;;;10415403;28;20225;-23
2021/07/14 20:20:57;;;;;;;4.70;4.20;;;21.30;88.70;;;;;;10423875;28;20204;-23
2021/07/14 20:26:19;;;;;;;4.77;4.10;;;21.30;88.70;;;;;;10455708;28;20256;-22
2021/07/14 20:31:42;;;;;;;4.10;3.80;;;21.30;88.70;;;;;;10450884;28;20201;-23
2021/07/14 20:37:06;;;;;;;4.40;4.00;;;21.30;88.70;;;;;;10424103;28;20219;-23
2021/07/14 20:42:28;;;;;;;4.23;3.83;;;21.30;88.70;;;;;;10415121;28;20689;-23
2021/07/14 20:47:50;;;;;;;4.80;4.33;;;21.30;88.70;;;;;;10420928;28;20221;-23
2021/07/14 20:53:14;;;;;;;3.67;3.37;;;21.30;88.70;;;;;;10418005;28;20197;-23
2021/07/14 20:58:36;;;;;;;4.17;3.77;;;21.30;88.70;;;;;;10413651;28;20221;-24
2021/07/14 21:03:58;;;;;;;3.50;3.20;;;21.20;88.60;;;;;;10412914;28;20217;-22
2021/07/14 21:09:21;;;;;;;3.70;3.40;;;21.30;88.70;;;;;;10428912;28;20220;-21
2021/07/14 21:14:44;;;;;;;3.87;3.47;;;21.20;88.60;;;;;;10413366;28;20674;-23
2021/07/14 21:20:08;;;;;;;4.10;3.30;;;21.20;88.60;;;;;;10415574;28;20565;-22
2021/07/14 21:25:31;;;;;;;3.97;3.23;;;21.20;88.60;;;;;;10453540;28;20221;-23
2021/07/14 21:30:54;;;;;;;3.10;2.80;;;21.20;88.60;;;;;;10452587;28;20668;-23
2021/07/14 21:36:16;;;;;;;3.40;3.10;;;21.20;88.60;;;;;;10433604;28;20689;-22
2021/07/14 21:41:39;;;;;;;4.87;3.23;;;21.20;88.60;;;;;;10411400;28;20190;-25
2021/07/14 21:47:02;;;;;;;3.00;2.80;;;21.20;88.50;;;;;;10411460;28;20597;-23
2021/07/14 21:52:24;;;;;;;3.17;2.87;;;21.20;88.50;;;;;;10411281;28;20606;-24
2021/07/14 21:57:48;;;;;;;3.40;3.10;;;21.20;88.60;;;;;;10410354;28;20218;-22
2021/07/14 22:03:10;;;;;;;3.07;2.77;;;21.20;89.00;;;;;;10431280;28;20197;-23
2021/07/14 22:08:32;;;;;;;2.97;2.77;;;21.20;88.50;;;;;;10410789;28;20692;-23
2021/07/14 22:13:56;;;;;;;2.97;2.77;;;21.20;88.50;;;;;;10409879;28;20685;-23
2021/07/14 22:19:18;;;;;;;2.70;2.50;;;21.20;88.50;;;;;;10410427;28;20585;-21
2021/07/14 22:24:40;;;;;;;2.90;2.70;;;21.20;88.50;;;;;;10450838;28;20217;-23
2021/07/14 22:30:06;;;;;;;2.70;2.50;;;21.20;88.50;;;;;;10451682;28;20195;-23
2021/07/14 22:35:35;;;;;;;2.60;2.40;;;21.20;88.40;;;;;;10447205;28;20220;-23
2021/07/14 22:40:58;;;;;;;3.10;2.50;;;21.20;88.50;;;;;;10440528;28;20193;-23
2021/07/14 22:46:21;;;;;;;2.40;2.20;;;21.20;88.40;;;;;;10418746;28;20217;-24
2021/07/14 22:51:43;;;;;;;2.00;1.90;;;21.20;88.40;;;;;;10418057;28;20209;-23
2021/07/14 22:57:06;;;;;;;2.33;2.10;;;21.20;88.40;;;;;;10418578;28;20593;-22
2021/07/14 23:02:30;;;;;;;2.30;2.10;;;21.20;88.40;;;;;;10417111;28;20600;-22
2021/07/14 23:07:53;;;;;;;2.27;2.10;;;21.20;88.40;;;;;;10417404;28;20226;-22
2021/07/14 23:13:16;;;;;;;2.37;2.17;;;21.20;88.30;;;;;;10416798;28;20202;-23
2021/07/14 23:18:39;;;;;;;2.47;2.17;;;21.20;88.30;;;;;;10416507;28;20585;-24
2021/07/14 23:24:01;;;;;;;2.00;1.90;;;21.20;88.30;;;;;;10452596;28;20205;-23
2021/07/14 23:29:23;;;;;;;2.03;1.90;;;21.20;88.30;;;;;;10457328;28;20216;-23
2021/07/14 23:34:47;;;;;;;2.40;2.20;;;21.10;88.30;;;;;;10448813;28;20204;-21
2021/07/14 23:40:11;;;;;;;2.53;1.63;;;21.20;88.30;;;;;;10449535;28;20576;-23
2021/07/14 23:45:33;;;;;;;1.97;1.87;;;21.20;88.30;;;;;;10434670;28;20225;-22
2021/07/14 23:50:57;;;;;;;1.97;1.47;;;21.20;88.30;;;;;;10415931;28;20209;-23
2021/07/14 23:56:20;;;;;;;1.73;1.63;;;21.20;88.30;;;;;;10415041;28;20489;-21
